sensor_id;sensor_type;location;lat;lon;timestamp;pressure;altitude;pressure_sealevel;temperature;humidity
12775;BME280;6451;42.630;23.382;2022-09-21T00:01:04;94558.50;;;8.39;100.00
12775;BME280;6451;42.630;23.382;2022-09-21T00:03:31;94562.66;;;8.37;100.00
12775;BME280;6451;42.630;23.382;2022-09-21T00:06:01;94554.03;;;8.34;100.00
12775;BME280;6451;42.630;23.382;2022-09-21T00:08:28;94555.16;;;8.33;100.00
12775;BME280;6451;42.630;23.382;2022-09-21T00:10:55;94555.91;;;8.13;100.00
12775;BME280;6451;42.630;23.382;2022-09-21T00:13:23;94535.50;;;7.86;100.00
12775;BME280;6451;42.630;23.382;2022-09-21T00:15:53;94561.03;;;7.97;100.00
12775;BME280;6451;42.630;23.382;2022-09-21T00:18:20;94572.22;;;7.87;100.00
12775;BME280;6451;42.630;23.382;2022-09-21T00:20:46;94574.63;;;7.71;100.00
12775;BME280;6451;42.630;23.382;2022-09-21T00:23:14;94573.22;;;7.65;100.00
12775;BME280;6451;42.630;23.382;2022-09-21T00:25:41;94571.66;;;7.56;100.00
12775;BME280;6451;42.630;23.382;2022-09-21T00:28:08;94576.72;;;7.57;100.00
12775;BME280;6451;42.630;23.382;2022-09-21T00:30:38;94571.22;;;7.28;100.00
12775;BME280;6451;42.630;23.382;2022-09-21T00:33:05;94566.13;;;7.35;100.00
12775;BME280;6451;42.630;23.382;2022-09-21T00:35:32;94561.22;;;7.19;100.00
12775;BME280;6451;42.630;23.382;2022-09-21T00:38:00;94530.59;;;7.15;100.00
12775;BME280;6451;42.630;23.382;2022-09-21T00:40:27;94552.50;;;7.31;100.00
12775;BME280;6451;42.630;23.382;2022-09-21T00:43:10;94559.09;;;7.51;100.00
12775;BME280;6451;42.630;23.382;2022-09-21T00:45:38;94561.03;;;7.59;100.00
12775;BME280;6451;42.630;23.382;2022-09-21T00:48:05;94502.50;;;7.16;100.00
12775;BME280;6451;42.630;23.382;2022-09-21T00:50:33;94555.78;;;7.54;100.00
12775;BME280;6451;42.630;23.382;2022-09-21T00:53:02;94555.47;;;7.56;100.00
12775;BME280;6451;42.630;23.382;2022-09-21T00:55:33;94560.84;;;7.56;100.00
12775;BME280;6451;42.630;23.382;2022-09-21T00:58:05;94554.53;;;7.51;100.00
12775;BME280;6451;42.630;23.382;2022-09-21T01:00:35;94546.13;;;7.44;100.00
12775;BME280;6451;42.630;23.382;2022-09-21T01:03:03;94544.38;;;7.40;100.00
12775;BME280;6451;42.630;23.382;2022-09-21T01:05:31;94547.41;;;7.38;100.00
12775;BME280;6451;42.630;23.382;2022-09-21T01:08:00;94563.28;;;7.40;100.00
12775;BME280;6451;42.630;23.382;2022-09-21T01:10:40;94562.50;;;7.22;100.00
12775;BME280;6451;42.630;23.382;2022-09-21T01:13:17;94556.63;;;7.29;100.00
12775;BME280;6451;42.630;23.382;2022-09-21T01:15:53;94562.47;;;7.39;100.00
12775;BME280;6451;42.630;23.382;2022-09-21T01:18:29;94546.63;;;7.29;100.00
12775;BME280;6451;42.630;23.382;2022-09-21T01:21:20;94544.41;;;7.22;100.00
12775;BME280;6451;42.630;23.382;2022-09-21T01:24:07;94507.47;;;7.06;100.00
12775;BME280;6451;42.630;23.382;2022-09-21T01:26:52;94554.53;;;7.34;100.00
12775;BME280;6451;42.630;23.382;2022-09-21T01:29:29;94532.94;;;7.34;100.00
12775;BME280;6451;42.630;23.382;2022-09-21T01:32:03;94542.34;;;7.37;100.00
12775;BME280;6451;42.630;23.382;2022-09-21T01:34:36;94541.81;;;7.43;100.00
12775;BME280;6451;42.630;23.382;2022-09-21T01:37:07;94523.09;;;7.38;100.00
12775;BME280;6451;42.630;23.382;2022-09-21T01:39:36;94538.97;;;7.40;100.00
12775;BME280;6451;42.630;23.382;2022-09-21T01:42:05;94538.34;;;7.34;100.00
12775;BME280;6451;42.630;23.382;2022-09-21T01:44:35;94540.72;;;7.36;100.00
12775;BME280;6451;42.630;23.382;2022-09-21T01:47:06;94532.47;;;7.41;100.00
12775;BME280;6451;42.630;23.382;2022-09-21T01:49:37;94546.44;;;7.34;100.00
12775;BME280;6451;42.630;23.382;2022-09-21T01:52:10;94521.72;;;7.23;100.00
12775;BME280;6451;42.630;23.382;2022-09-21T01:54:44;94537.72;;;7.37;100.00
12775;BME280;6451;42.630;23.382;2022-09-21T01:57:16;94440.50;;;6.73;100.00
12775;BME280;6451;42.630;23.382;2022-09-21T01:59:50;94542.03;;;7.30;100.00
12775;BME280;6451;42.630;23.382;2022-09-21T02:02:21;94540.44;;;7.29;100.00
12775;BME280;6451;42.630;23.382;2022-09-21T02:04:50;94530.75;;;7.36;100.00
12775;BME280;6451;42.630;23.382;2022-09-21T02:07:17;94531.06;;;7.26;100.00
12775;BME280;6451;42.630;23.382;2022-09-21T02:09:46;94533.75;;;7.35;100.00
12775;BME280;6451;42.630;23.382;2022-09-21T02:12:13;94532.16;;;7.34;100.00
12775;BME280;6451;42.630;23.382;2022-09-21T02:14:40;94535.34;;;7.18;100.00
12775;BME280;6451;42.630;23.382;2022-09-21T02:17:17;94549.03;;;7.22;100.00
12775;BME280;6451;42.630;23.382;2022-09-21T02:19:52;94530.31;;;7.08;100.00
12775;BME280;6451;42.630;23.382;2022-09-21T02:22:30;94550.13;;;7.04;100.00
12775;BME280;6451;42.630;23.382;2022-09-21T02:25:05;94550.78;;;7.01;100.00
12775;BME280;6451;42.630;23.382;2022-09-21T02:27:36;94550.28;;;6.90;100.00
12775;BME280;6451;42.630;23.382;2022-09-21T02:30:07;94533.50;;;6.84;100.00
12775;BME280;6451;42.630;23.382;2022-09-21T02:32:44;94558.72;;;7.06;100.00
12775;BME280;6451;42.630;23.382;2022-09-21T02:35:20;94553.94;;;7.03;100.00
12775;BME280;6451;42.630;23.382;2022-09-21T02:37:54;94542.69;;;7.01;100.00
12775;BME280;6451;42.630;23.382;2022-09-21T02:40:33;94552.81;;;7.12;100.00
12775;BME280;6451;42.630;23.382;2022-09-21T02:43:06;94554.72;;;7.12;100.00
12775;BME280;6451;42.630;23.382;2022-09-21T02:45:39;94552.03;;;7.12;100.00
12775;BME280;6451;42.630;23.382;2022-09-21T02:48:12;94557.41;;;7.12;100.00
12775;BME280;6451;42.630;23.382;2022-09-21T02:50:43;94553.44;;;7.18;100.00
12775;BME280;6451;42.630;23.382;2022-09-21T02:53:13;94552.19;;;7.15;100.00
12775;BME280;6451;42.630;23.382;2022-09-21T02:55:42;94535.69;;;7.08;100.00
12775;BME280;6451;42.630;23.382;2022-09-21T02:58:12;94529.97;;;7.01;100.00
12775;BME280;6451;42.630;23.382;2022-09-21T03:00:40;94558.22;;;7.12;100.00
12775;BME280;6451;42.630;23.382;2022-09-21T03:03:16;94548.41;;;6.99;100.00
12775;BME280;6451;42.630;23.382;2022-09-21T03:05:46;94556.00;;;6.97;100.00
12775;BME280;6451;42.630;23.382;2022-09-21T03:08:14;94561.56;;;7.01;100.00
12775;BME280;6451;42.630;23.382;2022-09-21T03:10:41;94548.69;;;6.89;100.00
12775;BME280;6451;42.630;23.382;2022-09-21T03:13:08;94564.25;;;6.92;100.00
12775;BME280;6451;42.630;23.382;2022-09-21T03:15:35;94563.47;;;6.91;100.00
12775;BME280;6451;42.630;23.382;2022-09-21T03:18:03;94536.66;;;6.86;100.00
12775;BME280;6451;42.630;23.382;2022-09-21T03:20:33;94553.31;;;6.88;100.00
12775;BME280;6451;42.630;23.382;2022-09-21T03:23:00;94557.13;;;6.87;100.00
12775;BME280;6451;42.630;23.382;2022-09-21T03:25:27;94556.00;;;6.88;100.00
12775;BME280;6451;42.630;23.382;2022-09-21T03:27:56;94555.38;;;6.83;100.00
12775;BME280;6451;42.630;23.382;2022-09-21T03:30:25;94548.69;;;6.72;100.00
12775;BME280;6451;42.630;23.382;2022-09-21T03:32:54;94535.69;;;6.65;100.00
12775;BME280;6451;42.630;23.382;2022-09-21T03:35:22;94520.63;;;6.47;100.00
12775;BME280;6451;42.630;23.382;2022-09-21T03:37:51;94552.03;;;6.77;100.00
12775;BME280;6451;42.630;23.382;2022-09-21T03:40:19;94561.25;;;6.67;100.00
12775;BME280;6451;42.630;23.382;2022-09-21T03:42:46;94551.84;;;6.48;100.00
12775;BME280;6451;42.630;23.382;2022-09-21T03:45:13;94554.22;;;6.49;100.00
12775;BME280;6451;42.630;23.382;2022-09-21T03:47:41;94519.63;;;6.34;100.00
12775;BME280;6451;42.630;23.382;2022-09-21T03:50:09;94566.44;;;6.55;100.00
12775;BME280;6451;42.630;23.382;2022-09-21T03:52:37;94568.81;;;6.57;100.00
12775;BME280;6451;42.630;23.382;2022-09-21T03:55:07;94559.59;;;6.40;100.00
12775;BME280;6451;42.630;23.382;2022-09-21T03:57:35;94567.38;;;6.42;100.00
12775;BME280;6451;42.630;23.382;2022-09-21T04:00:07;94550.38;;;6.33;100.00
12775;BME280;6451;42.630;23.382;2022-09-21T04:02:34;94582.84;;;6.19;100.00
12775;BME280;6451;42.630;23.382;2022-09-21T04:05:02;94570.78;;;6.08;100.00
12775;BME280;6451;42.630;23.382;2022-09-21T04:07:32;94557.44;;;6.03;100.00
12775;BME280;6451;42.630;23.382;2022-09-21T04:09:59;94581.22;;;6.09;100.00
12775;BME280;6451;42.630;23.382;2022-09-21T04:12:27;94583.75;;;6.06;100.00
12775;BME280;6451;42.630;23.382;2022-09-21T04:14:54;94573.63;;;6.11;100.00
12775;BME280;6451;42.630;23.382;2022-09-21T04:17:21;94581.09;;;6.15;100.00
12775;BME280;6451;42.630;23.382;2022-09-21T04:19:48;94584.59;;;6.24;100.00
12775;BME280;6451;42.630;23.382;2022-09-21T04:22:15;94579.34;;;6.19;100.00
12775;BME280;6451;42.630;23.382;2022-09-21T04:24:44;94584.47;;;6.29;100.00
12775;BME280;6451;42.630;23.382;2022-09-21T04:27:11;94585.75;;;6.31;100.00
12775;BME280;6451;42.630;23.382;2022-09-21T04:29:39;94573.84;;;6.32;100.00
12775;BME280;6451;42.630;23.382;2022-09-21T04:32:06;94573.09;;;6.49;100.00
12775;BME280;6451;42.630;23.382;2022-09-21T04:34:33;94578.81;;;6.65;100.00
12775;BME280;6451;42.630;23.382;2022-09-21T04:37:01;94575.44;;;6.33;100.00
12775;BME280;6451;42.630;23.382;2022-09-21T04:39:28;94445.59;;;5.66;100.00
12775;BME280;6451;42.630;23.382;2022-09-21T04:41:55;94579.34;;;6.76;100.00
12775;BME280;6451;42.630;23.382;2022-09-21T04:44:23;94576.63;;;6.93;100.00
12775;BME280;6451;42.630;23.382;2022-09-21T04:46:52;94565.06;;;6.92;100.00
12775;BME280;6451;42.630;23.382;2022-09-21T04:49:19;94567.59;;;7.06;100.00
12775;BME280;6451;42.630;23.382;2022-09-21T04:51:45;94579.63;;;7.26;100.00
12775;BME280;6451;42.630;23.382;2022-09-21T04:54:12;94576.63;;;7.28;100.00
12775;BME280;6451;42.630;23.382;2022-09-21T04:56:39;94544.88;;;7.24;100.00
12775;BME280;6451;42.630;23.382;2022-09-21T04:59:06;94578.22;;;7.29;100.00
12775;BME280;6451;42.630;23.382;2022-09-21T05:01:33;94578.03;;;7.34;100.00
12775;BME280;6451;42.630;23.382;2022-09-21T05:04:02;94576.97;;;7.00;100.00
12775;BME280;6451;42.630;23.382;2022-09-21T05:06:29;94582.97;;;7.32;100.00
12775;BME280;6451;42.630;23.382;2022-09-21T05:08:56;94585.84;;;7.44;100.00
12775;BME280;6451;42.630;23.382;2022-09-21T05:11:41;94585.03;;;7.35;100.00
12775;BME280;6451;42.630;23.382;2022-09-21T05:14:08;94581.22;;;7.36;100.00
12775;BME280;6451;42.630;23.382;2022-09-21T05:16:37;94584.03;;;7.65;100.00
12775;BME280;6451;42.630;23.382;2022-09-21T05:19:05;94575.25;;;7.86;100.00
12775;BME280;6451;42.630;23.382;2022-09-21T05:21:32;94578.06;;;7.98;100.00
12775;BME280;6451;42.630;23.382;2022-09-21T05:24:01;94580.50;;;8.20;100.00
12775;BME280;6451;42.630;23.382;2022-09-21T05:26:28;94574.59;;;8.27;100.00
12775;BME280;6451;42.630;23.382;2022-09-21T05:28:55;94576.16;;;8.28;100.00
12775;BME280;6451;42.630;23.382;2022-09-21T05:31:38;94578.22;;;8.40;100.00
12775;BME280;6451;42.630;23.382;2022-09-21T05:34:19;94523.09;;;7.94;100.00
12775;BME280;6451;42.630;23.382;2022-09-21T05:36:58;94582.63;;;8.53;100.00
12775;BME280;6451;42.630;23.382;2022-09-21T05:39:30;94578.00;;;8.53;100.00
12775;BME280;6451;42.630;23.382;2022-09-21T05:41:58;94561.25;;;8.60;100.00
12775;BME280;6451;42.630;23.382;2022-09-21T05:44:25;94562.16;;;8.64;100.00
12775;BME280;6451;42.630;23.382;2022-09-21T05:46:58;94577.03;;;8.79;100.00
12775;BME280;6451;42.630;23.382;2022-09-21T05:49:39;94560.88;;;8.70;100.00
12775;BME280;6451;42.630;23.382;2022-09-21T05:52:18;94561.84;;;8.66;100.00
12775;BME280;6451;42.630;23.382;2022-09-21T05:54:57;94574.06;;;8.72;100.00
12775;BME280;6451;42.630;23.382;2022-09-21T05:57:38;94563.22;;;8.72;100.00
12775;BME280;6451;42.630;23.382;2022-09-21T06:00:15;94558.59;;;8.51;100.00
12775;BME280;6451;42.630;23.382;2022-09-21T06:03:21;94582.78;;;8.48;100.00
12775;BME280;6451;42.630;23.382;2022-09-21T06:05:52;94569.81;;;8.62;100.00
12775;BME280;6451;42.630;23.382;2022-09-21T06:08:19;94580.16;;;8.89;100.00
12775;BME280;6451;42.630;23.382;2022-09-21T06:10:46;94553.28;;;8.84;100.00
12775;BME280;6451;42.630;23.382;2022-09-21T06:13:14;94582.84;;;9.31;100.00
12775;BME280;6451;42.630;23.382;2022-09-21T06:15:43;94581.13;;;9.27;100.00
12775;BME280;6451;42.630;23.382;2022-09-21T06:18:10;94572.16;;;9.14;100.00
12775;BME280;6451;42.630;23.382;2022-09-21T06:20:38;94584.50;;;9.44;100.00
12775;BME280;6451;42.630;23.382;2022-09-21T06:23:07;94580.75;;;9.37;100.00
12775;BME280;6451;42.630;23.382;2022-09-21T06:25:34;94593.59;;;9.73;100.00
12775;BME280;6451;42.630;23.382;2022-09-21T06:28:02;94586.50;;;9.81;100.00
12775;BME280;6451;42.630;23.382;2022-09-21T06:30:29;94585.44;;;9.94;100.00
12775;BME280;6451;42.630;23.382;2022-09-21T06:32:58;94572.94;;;9.68;100.00
12775;BME280;6451;42.630;23.382;2022-09-21T06:35:26;94588.66;;;9.75;100.00
12775;BME280;6451;42.630;23.382;2022-09-21T06:37:57;94586.91;;;10.03;100.00
12775;BME280;6451;42.630;23.382;2022-09-21T06:40:27;94586.09;;;10.36;100.00
12775;BME280;6451;42.630;23.382;2022-09-21T06:42:55;94584.78;;;10.09;100.00
12775;BME280;6451;42.630;23.382;2022-09-21T06:45:24;94580.44;;;10.29;100.00
12775;BME280;6451;42.630;23.382;2022-09-21T06:47:51;94594.91;;;10.45;100.00
12775;BME280;6451;42.630;23.382;2022-09-21T06:50:18;94595.13;;;10.28;100.00
12775;BME280;6451;42.630;23.382;2022-09-21T06:52:45;94594.91;;;10.70;100.00
12775;BME280;6451;42.630;23.382;2022-09-21T06:55:13;94586.97;;;10.40;100.00
12775;BME280;6451;42.630;23.382;2022-09-21T06:57:42;94598.94;;;10.88;100.00
12775;BME280;6451;42.630;23.382;2022-09-21T07:00:11;94602.00;;;11.39;100.00
12775;BME280;6451;42.630;23.382;2022-09-21T07:02:42;94576.13;;;11.57;100.00
12775;BME280;6451;42.630;23.382;2022-09-21T07:05:09;94571.06;;;11.72;100.00
12775;BME280;6451;42.630;23.382;2022-09-21T07:07:36;94581.78;;;11.92;100.00
12775;BME280;6451;42.630;23.382;2022-09-21T07:10:05;94586.97;;;12.13;100.00
12775;BME280;6451;42.630;23.382;2022-09-21T07:12:32;94587.44;;;11.87;100.00
12775;BME280;6451;42.630;23.382;2022-09-21T07:15:01;94584.28;;;11.57;100.00
12775;BME280;6451;42.630;23.382;2022-09-21T07:17:30;94580.19;;;11.91;100.00
12775;BME280;6451;42.630;23.382;2022-09-21T07:19:57;94575.38;;;12.16;100.00
12775;BME280;6451;42.630;23.382;2022-09-21T07:22:27;94583.47;;;12.13;100.00
12775;BME280;6451;42.630;23.382;2022-09-21T07:24:54;94576.00;;;11.66;100.00
12775;BME280;6451;42.630;23.382;2022-09-21T07:27:22;94561.75;;;11.57;100.00
12775;BME280;6451;42.630;23.382;2022-09-21T07:29:49;94583.78;;;11.67;100.00
12775;BME280;6451;42.630;23.382;2022-09-21T07:32:18;94568.88;;;11.89;100.00
12775;BME280;6451;42.630;23.382;2022-09-21T07:34:45;94574.00;;;12.07;100.00
12775;BME280;6451;42.630;23.382;2022-09-21T07:37:13;94546.97;;;11.70;100.00
12775;BME280;6451;42.630;23.382;2022-09-21T07:39:40;94578.34;;;11.95;100.00
12775;BME280;6451;42.630;23.382;2022-09-21T07:42:07;94559.03;;;11.57;100.00
12775;BME280;6451;42.630;23.382;2022-09-21T07:44:34;94582.38;;;11.86;100.00
12775;BME280;6451;42.630;23.382;2022-09-21T07:47:00;94575.19;;;11.93;100.00
12775;BME280;6451;42.630;23.382;2022-09-21T07:49:29;94599.13;;;11.60;100.00
12775;BME280;6451;42.630;23.382;2022-09-21T07:51:56;94584.59;;;11.68;100.00
12775;BME280;6451;42.630;23.382;2022-09-21T07:54:22;94596.47;;;11.63;100.00
12775;BME280;6451;42.630;23.382;2022-09-21T07:56:49;94527.22;;;11.29;100.00
12775;BME280;6451;42.630;23.382;2022-09-21T07:59:30;94581.50;;;11.69;100.00
12775;BME280;6451;42.630;23.382;2022-09-21T08:01:58;94600.00;;;11.64;100.00
12775;BME280;6451;42.630;23.382;2022-09-21T08:04:25;94581.31;;;11.62;100.00
12775;BME280;6451;42.630;23.382;2022-09-21T08:06:53;94579.47;;;11.94;100.00
12775;BME280;6451;42.630;23.382;2022-09-21T08:09:20;94580.59;;;12.21;100.00
12775;BME280;6451;42.630;23.382;2022-09-21T08:11:47;94582.69;;;12.44;100.00
12775;BME280;6451;42.630;23.382;2022-09-21T08:14:16;94579.97;;;12.44;100.00
12775;BME280;6451;42.630;23.382;2022-09-21T08:16:45;94545.66;;;11.80;100.00
12775;BME280;6451;42.630;23.382;2022-09-21T08:19:12;94587.13;;;11.89;100.00
12775;BME280;6451;42.630;23.382;2022-09-21T08:21:42;94566.34;;;11.96;100.00
12775;BME280;6451;42.630;23.382;2022-09-21T08:27:32;94593.75;;;12.35;100.00
12775;BME280;6451;42.630;23.382;2022-09-21T08:29:59;94576.88;;;12.61;100.00
12775;BME280;6451;42.630;23.382;2022-09-21T08:32:27;94578.75;;;12.92;100.00
12775;BME280;6451;42.630;23.382;2022-09-21T08:34:55;94573.91;;;12.66;100.00
12775;BME280;6451;42.630;23.382;2022-09-21T08:37:23;94577.22;;;12.75;100.00
12775;BME280;6451;42.630;23.382;2022-09-21T08:39:50;94562.13;;;12.62;100.00
12775;BME280;6451;42.630;23.382;2022-09-21T08:42:37;94561.88;;;12.67;100.00
12775;BME280;6451;42.630;23.382;2022-09-21T08:45:11;94540.91;;;12.87;100.00
12775;BME280;6451;42.630;23.382;2022-09-21T08:47:43;94541.06;;;12.94;100.00
12775;BME280;6451;42.630;23.382;2022-09-21T08:50:28;94567.31;;;12.67;100.00
12775;BME280;6451;42.630;23.382;2022-09-21T08:53:01;94476.25;;;12.14;100.00
12775;BME280;6451;42.630;23.382;2022-09-21T08:55:29;94568.91;;;13.03;100.00
12775;BME280;6451;42.630;23.382;2022-09-21T08:57:58;94566.38;;;13.49;100.00
12775;BME280;6451;42.630;23.382;2022-09-21T09:00:26;94554.09;;;13.78;100.00
12775;BME280;6451;42.630;23.382;2022-09-21T09:03:20;94552.19;;;13.59;100.00
12775;BME280;6451;42.630;23.382;2022-09-21T09:05:51;94548.09;;;13.50;100.00
12775;BME280;6451;42.630;23.382;2022-09-21T09:08:54;94559.84;;;12.99;100.00
12775;BME280;6451;42.630;23.382;2022-09-21T09:11:36;94538.44;;;12.98;100.00
12775;BME280;6451;42.630;23.382;2022-09-21T09:14:22;94536.41;;;13.30;100.00
12775;BME280;6451;42.630;23.382;2022-09-21T09:17:07;94546.78;;;13.24;100.00
12775;BME280;6451;42.630;23.382;2022-09-21T09:19:44;94538.63;;;13.24;100.00
12775;BME280;6451;42.630;23.382;2022-09-21T09:22:18;94530.81;;;13.42;100.00
12775;BME280;6451;42.630;23.382;2022-09-21T09:24:48;94514.19;;;13.70;100.00
12775;BME280;6451;42.630;23.382;2022-09-21T09:27:18;94469.88;;;13.54;100.00
12775;BME280;6451;42.630;23.382;2022-09-21T09:29:55;94531.72;;;13.69;100.00
12775;BME280;6451;42.630;23.382;2022-09-21T09:32:29;94525.16;;;13.51;100.00
12775;BME280;6451;42.630;23.382;2022-09-21T09:35:03;94494.38;;;13.31;100.00
12775;BME280;6451;42.630;23.382;2022-09-21T09:37:36;94518.91;;;13.50;100.00
12775;BME280;6451;42.630;23.382;2022-09-21T09:40:06;94494.72;;;13.49;100.00
12775;BME280;6451;42.630;23.382;2022-09-21T09:42:42;94524.34;;;13.50;100.00
12775;BME280;6451;42.630;23.382;2022-09-21T09:45:36;94509.00;;;13.42;100.00
12775;BME280;6451;42.630;23.382;2022-09-21T09:48:23;94519.03;;;13.38;100.00
12775;BME280;6451;42.630;23.382;2022-09-21T09:50:55;94507.09;;;13.07;100.00
12775;BME280;6451;42.630;23.382;2022-09-21T09:53:24;94500.22;;;13.14;100.00
12775;BME280;6451;42.630;23.382;2022-09-21T09:55:53;94498.34;;;13.18;100.00
12775;BME280;6451;42.630;23.382;2022-09-21T09:58:22;94516.75;;;13.21;100.00
12775;BME280;6451;42.630;23.382;2022-09-21T10:00:53;94516.28;;;12.99;100.00
12775;BME280;6451;42.630;23.382;2022-09-21T10:03:22;94477.19;;;12.92;100.00
12775;BME280;6451;42.630;23.382;2022-09-21T10:05:50;94463.91;;;12.71;100.00
12775;BME280;6451;42.630;23.382;2022-09-21T10:08:38;94284.25;;;11.78;100.00
12775;BME280;6451;42.630;23.382;2022-09-21T10:11:08;94497.31;;;13.22;98.88
12775;BME280;6451;42.630;23.382;2022-09-21T10:13:36;94475.66;;;13.29;99.97
12775;BME280;6451;42.630;23.382;2022-09-21T10:16:11;94470.31;;;13.56;99.02
12775;BME280;6451;42.630;23.382;2022-09-21T10:18:43;94484.28;;;13.74;97.55
12775;BME280;6451;42.630;23.382;2022-09-21T10:21:16;94486.47;;;13.45;97.48
12775;BME280;6451;42.630;23.382;2022-09-21T10:23:46;94458.56;;;13.13;98.81
12775;BME280;6451;42.630;23.382;2022-09-21T10:26:15;94476.34;;;13.26;100.00
12775;BME280;6451;42.630;23.382;2022-09-21T10:28:54;94471.59;;;13.20;99.77
12775;BME280;6451;42.630;23.382;2022-09-21T10:31:25;94453.13;;;12.94;100.00
12775;BME280;6451;42.630;23.382;2022-09-21T10:34:03;94269.00;;;11.89;99.46
12775;BME280;6451;42.630;23.382;2022-09-21T10:36:34;94367.53;;;12.37;99.53
12775;BME280;6451;42.630;23.382;2022-09-21T10:39:19;94478.94;;;13.00;99.16
12775;BME280;6451;42.630;23.382;2022-09-21T10:41:48;94470.84;;;13.03;99.76
12775;BME280;6451;42.630;23.382;2022-09-21T10:44:17;94458.16;;;13.30;97.73
12775;BME280;6451;42.630;23.382;2022-09-21T10:46:47;94458.56;;;13.52;95.07
12775;BME280;6451;42.630;23.382;2022-09-21T10:49:19;94465.31;;;13.58;93.55
12775;BME280;6451;42.630;23.382;2022-09-21T10:55:04;94438.09;;;13.61;87.95
12775;BME280;6451;42.630;23.382;2022-09-21T10:57:32;94455.25;;;13.85;84.21
12775;BME280;6451;42.630;23.382;2022-09-21T11:00:11;94437.16;;;13.54;83.14
12775;BME280;6451;42.630;23.382;2022-09-21T11:02:55;94425.97;;;13.82;81.28
12775;BME280;6451;42.630;23.382;2022-09-21T11:05:28;94460.19;;;14.02;76.43
12775;BME280;6451;42.630;23.382;2022-09-21T11:08:00;94437.91;;;13.74;77.03
12775;BME280;6451;42.630;23.382;2022-09-21T11:10:32;94426.41;;;14.10;78.63
12775;BME280;6451;42.630;23.382;2022-09-21T11:13:19;94445.59;;;14.14;78.28
12775;BME280;6451;42.630;23.382;2022-09-21T11:15:54;94433.72;;;13.80;79.12
12775;BME280;6451;42.630;23.382;2022-09-21T11:18:34;94441.00;;;13.72;80.13
12775;BME280;6451;42.630;23.382;2022-09-21T11:21:04;94404.34;;;13.47;80.84
12775;BME280;6451;42.630;23.382;2022-09-21T11:23:47;94440.19;;;13.72;80.70
12775;BME280;6451;42.630;23.382;2022-09-21T11:26:22;94437.69;;;13.82;79.60
12775;BME280;6451;42.630;23.382;2022-09-21T11:28:56;94435.72;;;13.83;79.30
12775;BME280;6451;42.630;23.382;2022-09-21T11:31:43;94427.72;;;13.94;77.24
12775;BME280;6451;42.630;23.382;2022-09-21T11:34:55;94433.47;;;14.11;75.20
12775;BME280;6451;42.630;23.382;2022-09-21T11:37:38;94428.69;;;14.31;74.84
12775;BME280;6451;42.630;23.382;2022-09-21T11:40:22;94428.00;;;14.38;72.89
12775;BME280;6451;42.630;23.382;2022-09-21T11:43:00;94458.53;;;14.70;72.51
12775;BME280;6451;42.630;23.382;2022-09-21T11:45:42;94418.94;;;14.57;72.16
12775;BME280;6451;42.630;23.382;2022-09-21T11:48:18;94403.97;;;14.21;72.99
12775;BME280;6451;42.630;23.382;2022-09-21T11:50:58;94413.59;;;14.37;72.56
12775;BME280;6451;42.630;23.382;2022-09-21T11:53:37;94428.81;;;14.12;71.49
12775;BME280;6451;42.630;23.382;2022-09-21T11:56:21;94421.63;;;14.27;71.11
12775;BME280;6451;42.630;23.382;2022-09-21T11:58:56;94452.06;;;14.29;67.10
12775;BME280;6451;42.630;23.382;2022-09-21T12:01:45;94450.97;;;13.64;86.32
12775;BME280;6451;42.630;23.382;2022-09-21T12:04:41;94473.69;;;13.11;100.00
12775;BME280;6451;42.630;23.382;2022-09-21T12:07:26;94455.53;;;12.60;100.00
12775;BME280;6451;42.630;23.382;2022-09-21T12:10:21;94493.16;;;12.39;100.00
12775;BME280;6451;42.630;23.382;2022-09-21T12:12:55;94476.84;;;12.23;100.00
12775;BME280;6451;42.630;23.382;2022-09-21T12:15:30;94462.19;;;12.28;100.00
12775;BME280;6451;42.630;23.382;2022-09-21T12:18:05;94483.59;;;12.29;100.00
12775;BME280;6451;42.630;23.382;2022-09-21T12:20:39;94472.78;;;12.33;100.00
12775;BME280;6451;42.630;23.382;2022-09-21T12:23:13;94445.22;;;12.34;100.00
12775;BME280;6451;42.630;23.382;2022-09-21T12:25:44;94380.44;;;12.05;100.00
12775;BME280;6451;42.630;23.382;2022-09-21T12:28:17;94475.34;;;12.96;100.00
12775;BME280;6451;42.630;23.382;2022-09-21T12:30:49;94482.72;;;12.95;100.00
12775;BME280;6451;42.630;23.382;2022-09-21T12:33:25;94487.72;;;12.74;100.00
12775;BME280;6451;42.630;23.382;2022-09-21T12:36:02;94450.56;;;12.46;100.00
12775;BME280;6451;42.630;23.382;2022-09-21T12:38:34;94461.41;;;12.62;100.00
12775;BME280;6451;42.630;23.382;2022-09-21T12:41:08;94474.25;;;12.81;100.00
12775;BME280;6451;42.630;23.382;2022-09-21T12:43:38;94472.13;;;12.90;100.00
12775;BME280;6451;42.630;23.382;2022-09-21T12:46:09;94481.75;;;13.03;100.00
12775;BME280;6451;42.630;23.382;2022-09-21T12:48:39;94467.19;;;12.96;100.00
12775;BME280;6451;42.630;23.382;2022-09-21T12:51:14;94471.53;;;12.81;100.00
12775;BME280;6451;42.630;23.382;2022-09-21T12:53:47;94461.72;;;12.76;100.00
12775;BME280;6451;42.630;23.382;2022-09-21T12:56:23;94462.78;;;12.91;100.00
12775;BME280;6451;42.630;23.382;2022-09-21T12:59:10;94461.81;;;12.64;100.00
12775;BME280;6451;42.630;23.382;2022-09-21T13:01:45;94464.91;;;12.63;100.00
12775;BME280;6451;42.630;23.382;2022-09-21T13:04:39;94465.09;;;12.89;100.00
12775;BME280;6451;42.630;23.382;2022-09-21T13:07:51;94469.44;;;12.94;100.00
12775;BME280;6451;42.630;23.382;2022-09-21T13:10:33;94440.81;;;12.80;100.00
12775;BME280;6451;42.630;23.382;2022-09-21T13:13:05;94471.44;;;12.77;100.00
12775;BME280;6451;42.630;23.382;2022-09-21T13:15:42;94458.50;;;12.90;100.00
12775;BME280;6451;42.630;23.382;2022-09-21T13:18:21;94421.84;;;12.88;100.00
12775;BME280;6451;42.630;23.382;2022-09-21T13:20:49;94413.03;;;13.14;100.00
12775;BME280;6451;42.630;23.382;2022-09-21T13:23:25;94465.00;;;13.63;100.00
12775;BME280;6451;42.630;23.382;2022-09-21T13:26:06;94429.22;;;13.45;100.00
12775;BME280;6451;42.630;23.382;2022-09-21T13:29:04;94452.94;;;13.64;100.00
12775;BME280;6451;42.630;23.382;2022-09-21T13:31:41;94447.06;;;13.62;100.00